createdAt,value
2022-11-21T00:03:24.718Z,93169.28
2022-11-21T00:08:27.739Z,93174.41
2022-11-21T00:13:30.856Z,93206.09
2022-11-21T00:18:37.123Z,93188.13
2022-11-21T00:23:40.305Z,93118.84
2022-11-21T00:28:43.985Z,93143.06
2022-11-21T00:33:47.905Z,93164.19
2022-11-21T00:38:51.725Z,93143.63
2022-11-21T00:43:55.646Z,93126.59
2022-11-21T00:48:58.985Z,93114.94
2022-11-21T00:54:03.083Z,93109.91
2022-11-21T00:59:06.553Z,93099.91
2022-11-21T01:04:11.074Z,93113.13
2022-11-21T01:09:14.606Z,93104.38
2022-11-21T01:14:18.049Z,93085.59
2022-11-21T01:19:21.321Z,93111.91
2022-11-21T01:24:25.142Z,93130.38
2022-11-21T01:29:28.957Z,93151.34
2022-11-21T01:34:32.025Z,93133.25
2022-11-21T01:39:35.139Z,93153.19
2022-11-21T01:44:53.805Z,93151.16
2022-11-21T01:49:57.412Z,93132.75
2022-11-21T01:55:09.827Z,93137.69
2022-11-21T02:00:21.779Z,93151.34
2022-11-21T02:05:28.451Z,93154.94
2022-11-21T02:10:31.535Z,93159.31
2022-11-21T02:15:34.589Z,93143.13
2022-11-21T02:20:41.971Z,93137.06
2022-11-21T02:25:45.323Z,93120.06
2022-11-21T02:30:48.604Z,93094.25
2022-11-21T02:36:02.404Z,93120.78
2022-11-21T02:41:17.783Z,93120.66
2022-11-21T02:46:20.892Z,93109.75
2022-11-21T02:51:23.944Z,93117.00
2022-11-21T02:56:27.012Z,93102.47
2022-11-21T03:01:30.473Z,93070.84
2022-11-21T03:06:34.970Z,93102.06
2022-11-21T03:11:38.454Z,93112.34
2022-11-21T03:16:41.953Z,93136.78
2022-11-21T03:21:45.113Z,93099.63
2022-11-21T03:26:48.645Z,93149.56
2022-11-21T03:31:52.527Z,93150.25
2022-11-21T03:36:55.592Z,93175.94
2022-11-21T03:41:58.893Z,93157.06
2022-11-21T03:47:02.401Z,93187.50
2022-11-21T03:52:05.487Z,93186.31
2022-11-21T03:57:08.966Z,93171.53
2022-11-21T04:02:12.446Z,93190.38
2022-11-21T04:07:16.878Z,93201.88
2022-11-21T04:12:20.381Z,93183.97
2022-11-21T04:17:24.013Z,93187.94
2022-11-21T04:22:27.537Z,93201.84
2022-11-21T04:27:30.950Z,93221.25
2022-11-21T04:32:37.175Z,93226.31
2022-11-21T04:37:40.256Z,93221.16
2022-11-21T04:42:44.872Z,93201.41
2022-11-21T04:47:48.292Z,93228.06
2022-11-21T04:52:57.193Z,93222.63
2022-11-21T04:58:00.771Z,93241.31
2022-11-21T05:03:05.920Z,93254.56
2022-11-21T05:08:09.031Z,93233.28
2022-11-21T05:13:21.394Z,93225.56
2022-11-21T05:18:25.425Z,93198.81
2022-11-21T05:23:28.397Z,93209.94
2022-11-21T05:28:31.810Z,93230.91
2022-11-21T05:33:35.908Z,93263.31
2022-11-21T05:38:39.636Z,93268.50
2022-11-21T05:43:49.354Z,93266.94
2022-11-21T05:48:54.665Z,93267.25
2022-11-21T05:53:57.650Z,93293.97
2022-11-21T05:59:00.655Z,93316.16
2022-11-21T06:04:04.330Z,93299.28
2022-11-21T06:09:07.744Z,93302.94
2022-11-21T06:14:10.832Z,93275.47
2022-11-21T06:19:14.775Z,93214.56
2022-11-21T06:24:21.932Z,93282.75
2022-11-21T06:29:26.505Z,93306.59
2022-11-21T06:34:30.221Z,93298.78
2022-11-21T06:39:34.186Z,93316.72
2022-11-21T06:44:37.848Z,93331.22
2022-11-21T06:49:41.576Z,93314.06
2022-11-21T06:54:45.412Z,93331.97
2022-11-21T06:59:48.893Z,93338.94
2022-11-21T07:04:52.517Z,93339.78
2022-11-21T07:09:55.676Z,93305.94
2022-11-21T07:14:58.640Z,93289.94
2022-11-21T07:20:02.343Z,93322.97
2022-11-21T07:25:06.646Z,93326.41
2022-11-21T07:30:10.726Z,93332.91
2022-11-21T07:35:14.115Z,93328.28
2022-11-21T07:40:17.835Z,93338.75
2022-11-21T07:45:21.701Z,93338.34
2022-11-21T07:50:25.077Z,93323.03
2022-11-21T07:55:37.686Z,93331.16
2022-11-21T08:00:43.679Z,93312.69
2022-11-21T08:05:46.756Z,93333.09
2022-11-21T08:10:51.850Z,93332.34
2022-11-21T08:15:55.649Z,93360.19
2022-11-21T08:21:03.011Z,93344.56
2022-11-21T08:26:10.627Z,93345.50
2022-11-21T08:31:14.435Z,93345.75
2022-11-21T08:36:18.417Z,93328.81
2022-11-21T08:41:40.255Z,93359.41
2022-11-21T08:46:43.328Z,93361.53
2022-11-21T08:51:50.828Z,93380.34
2022-11-21T08:56:54.782Z,93387.06
2022-11-21T09:01:58.105Z,93395.06
2022-11-21T09:07:02.429Z,93390.50
2022-11-21T09:12:06.135Z,93401.88
2022-11-21T09:17:32.869Z,93414.72
2022-11-21T09:22:36.458Z,93415.66
2022-11-21T09:27:39.863Z,93423.28
2022-11-21T09:32:43.534Z,93412.72
2022-11-21T09:37:47.106Z,93404.44
2022-11-21T09:43:20.781Z,93428.53
2022-11-21T09:48:47.248Z,93434.88
2022-11-21T09:53:59.658Z,93442.28
2022-11-21T09:59:05.534Z,93444.38
2022-11-21T10:04:09.051Z,93437.19
2022-11-21T10:09:34.140Z,93426.16
2022-11-21T10:15:14.665Z,93413.78
2022-11-21T10:20:36.406Z,93400.31
2022-11-21T10:25:40.119Z,93394.34
2022-11-21T10:30:45.975Z,93370.22
2022-11-21T10:35:54.818Z,93372.91
2022-11-21T10:41:07.040Z,93357.25
2022-11-21T10:46:10.293Z,93366.81
2022-11-21T10:51:13.809Z,93338.56
2022-11-21T10:56:26.951Z,93352.09
2022-11-21T11:01:33.669Z,93364.16
2022-11-21T11:06:41.643Z,93379.69
2022-11-21T11:11:44.752Z,93361.09
2022-11-21T11:16:48.248Z,93350.50
2022-11-21T11:21:51.562Z,93352.88
2022-11-21T11:27:03.364Z,93339.59
2022-11-21T11:32:21.238Z,93324.22
2022-11-21T11:37:40.399Z,93313.09
2022-11-21T11:43:33.194Z,93312.97
2022-11-21T11:49:03.748Z,93322.50
2022-11-21T11:54:13.960Z,93307.16
2022-11-21T11:59:37.622Z,93301.06
2022-11-21T12:04:50.602Z,93288.41
2022-11-21T12:10:15.904Z,93300.94
2022-11-21T12:15:43.029Z,93316.66
2022-11-21T12:20:59.255Z,93329.03
2022-11-21T12:26:11.353Z,93333.88
2022-11-21T12:31:55.134Z,93339.91
2022-11-21T12:37:48.552Z,93347.13
2022-11-21T12:43:14.743Z,93354.97
2022-11-21T12:49:03.342Z,93350.09
2022-11-21T12:54:30.801Z,93359.75
2022-11-21T12:59:45.151Z,93357.41
2022-11-21T13:04:51.638Z,93370.78
2022-11-21T13:09:59.253Z,93366.47
2022-11-21T13:15:06.640Z,93369.03
2022-11-21T13:20:33.836Z,93358.00
2022-11-21T13:25:40.941Z,93365.75
2022-11-21T13:30:52.893Z,93347.56
2022-11-21T13:35:56.821Z,93341.19
2022-11-21T13:41:19.262Z,93317.22
2022-11-21T13:46:59.927Z,93319.47
2022-11-21T13:52:15.790Z,93335.84
2022-11-21T13:57:46.958Z,93318.28
2022-11-21T14:03:08.963Z,93335.84
2022-11-21T14:08:23.634Z,93328.47
2022-11-21T14:13:39.331Z,93352.56
2022-11-21T14:18:47.012Z,93357.22
2022-11-21T14:23:50.966Z,93358.28
2022-11-21T14:28:54.513Z,93358.50
2022-11-21T14:33:58.703Z,93339.53
2022-11-21T14:39:35.391Z,93352.38
2022-11-21T14:44:32.671Z,93309.09
2022-11-21T14:49:36.317Z,93310.97
2022-11-21T14:55:28.069Z,93296.41
2022-11-21T15:00:57.201Z,93320.22
2022-11-21T15:06:01.824Z,93342.25
2022-11-21T15:11:09.775Z,93327.81
2022-11-21T15:16:13.578Z,93325.91
2022-11-21T15:21:17.617Z,93332.63
2022-11-21T15:26:35.854Z,93344.72
2022-11-21T15:31:39.392Z,93362.06
2022-11-21T15:36:42.626Z,93328.28
2022-11-21T15:41:46.237Z,93358.97
2022-11-21T15:46:52.941Z,93377.00
2022-11-21T15:52:11.791Z,93391.50
2022-11-21T15:57:16.955Z,93404.38
2022-11-21T16:02:21.082Z,93397.72
2022-11-21T16:07:25.343Z,93395.31
2022-11-21T16:12:30.663Z,93394.09
2022-11-21T16:17:34.980Z,93377.22
2022-11-21T16:22:41.444Z,93376.31
2022-11-21T16:27:47.397Z,93386.94
2022-11-21T16:32:51.551Z,93387.97
2022-11-21T16:37:55.315Z,93364.03
2022-11-21T16:43:11.342Z,93372.19
2022-11-21T16:48:14.537Z,93411.56
2022-11-21T16:53:18.014Z,93383.75
2022-11-21T16:58:21.706Z,93369.88
2022-11-21T17:03:24.947Z,93388.63
2022-11-21T17:08:31.941Z,93391.69
2022-11-21T17:13:35.268Z,93397.44
2022-11-21T17:18:39.442Z,93399.69
2022-11-21T17:23:46.194Z,93396.91
2022-11-21T17:28:54.350Z,93419.50
2022-11-21T17:33:59.122Z,93417.88
2022-11-21T17:39:02.885Z,93407.19
2022-11-21T17:44:07.098Z,93419.72
2022-11-21T17:49:12.088Z,93414.97
2022-11-21T17:54:15.764Z,93398.88
2022-11-21T17:59:19.312Z,93415.22
2022-11-21T18:04:23.395Z,93409.25
2022-11-21T18:09:27.043Z,93412.16
2022-11-21T18:14:31.458Z,93399.53
2022-11-21T18:19:35.192Z,93389.44
2022-11-21T18:24:38.834Z,93407.63
2022-11-21T18:29:41.947Z,93391.97
2022-11-21T18:34:45.001Z,93402.16
2022-11-21T18:39:48.222Z,93381.72
2022-11-21T18:44:52.125Z,93398.03
2022-11-21T18:49:55.262Z,93385.25
2022-11-21T18:54:58.305Z,93390.28
2022-11-21T19:00:01.573Z,93407.41
2022-11-21T19:05:05.357Z,93404.28
2022-11-21T19:10:35.644Z,93390.50
2022-11-21T19:15:32.532Z,93387.34
2022-11-21T19:20:37.512Z,93383.75
2022-11-21T19:25:40.607Z,93378.06
2022-11-21T19:30:43.700Z,93397.94
2022-11-21T19:35:47.088Z,93412.44
2022-11-21T19:41:09.935Z,93405.97
2022-11-21T19:46:17.792Z,93399.72
2022-11-21T19:51:24.368Z,93401.19
2022-11-21T19:56:30.242Z,93398.00
2022-11-21T20:01:36.175Z,93413.69
2022-11-21T20:06:41.776Z,93439.75
2022-11-21T20:11:46.994Z,93432.94
2022-11-21T20:16:53.107Z,93432.00
2022-11-21T20:21:56.983Z,93431.25
2022-11-21T20:27:00.170Z,93422.16
2022-11-21T20:32:04.721Z,93426.63
2022-11-21T20:37:08.852Z,93418.81
2022-11-21T20:42:12.833Z,93408.69
2022-11-21T20:47:18.768Z,93392.50
2022-11-21T20:57:45.521Z,93375.75
2022-11-21T21:02:48.633Z,93380.81
2022-11-21T21:07:52.206Z,93373.38
2022-11-21T21:12:55.975Z,93386.22
2022-11-21T21:18:01.009Z,93370.47
2022-11-21T21:23:05.116Z,93353.53
2022-11-21T21:28:09.505Z,93338.63
2022-11-21T21:33:16.809Z,93360.59
2022-11-21T21:38:19.952Z,93370.16
2022-11-21T21:43:23.441Z,93376.63
2022-11-21T21:48:26.435Z,93380.16
2022-11-21T21:53:30.021Z,93360.97
2022-11-21T21:58:35.645Z,93352.75
2022-11-21T22:03:39.189Z,93347.28
2022-11-21T22:08:44.157Z,93336.34
2022-11-21T22:13:51.783Z,93326.19
2022-11-21T22:18:55.707Z,93324.97
2022-11-21T22:29:24.778Z,93291.81
2022-11-21T22:34:28.356Z,93289.47
2022-11-21T22:39:33.225Z,93291.41
2022-11-21T22:44:36.872Z,93296.09
2022-11-21T22:49:40.077Z,93297.22
2022-11-21T22:54:44.207Z,93315.16
2022-11-21T22:59:47.614Z,93296.75
2022-11-21T23:04:52.420Z,93298.75
2022-11-21T23:09:57.512Z,93258.09
2022-11-21T23:15:00.581Z,93261.25
2022-11-21T23:20:04.624Z,93273.72
2022-11-21T23:25:08.091Z,93269.06
2022-11-21T23:30:12.019Z,93261.97
2022-11-21T23:35:15.686Z,93255.66
2022-11-21T23:40:19.422Z,93233.41
2022-11-21T23:45:22.759Z,93234.19
2022-11-21T23:50:25.767Z,93219.28
2022-11-21T23:55:29.618Z,93215.13
